sensor_id;sensor_type;location;lat;lon;timestamp;pressure;altitude;pressure_sealevel;temperature;humidity
28428;BME280;15662;49.128;8.520;2022-07-25T00:02:10;100071.00;;;27.88;42.87
28428;BME280;15662;49.128;8.520;2022-07-25T00:04:40;100074.09;;;27.93;42.95
28428;BME280;15662;49.128;8.520;2022-07-25T00:07:09;100061.16;;;27.95;42.45
28428;BME280;15662;49.128;8.520;2022-07-25T00:09:37;100065.28;;;27.99;42.28
28428;BME280;15662;49.128;8.520;2022-07-25T00:12:05;100056.09;;;28.00;42.37
28428;BME280;15662;49.128;8.520;2022-07-25T00:14:34;100053.91;;;28.04;42.53
28428;BME280;15662;49.128;8.520;2022-07-25T00:17:02;100049.63;;;28.01;42.52
28428;BME280;15662;49.128;8.520;2022-07-25T00:19:29;100052.34;;;28.01;42.89
28428;BME280;15662;49.128;8.520;2022-07-25T00:21:57;100051.50;;;28.01;43.04
28428;BME280;15662;49.128;8.520;2022-07-25T00:24:25;100037.03;;;28.00;42.75
28428;BME280;15662;49.128;8.520;2022-07-25T00:26:53;100051.34;;;28.02;42.92
28428;BME280;15662;49.128;8.520;2022-07-25T00:29:21;100057.97;;;28.00;42.75
28428;BME280;15662;49.128;8.520;2022-07-25T00:31:49;100065.28;;;27.99;42.85
28428;BME280;15662;49.128;8.520;2022-07-25T00:34:17;100053.94;;;27.86;43.00
28428;BME280;15662;49.128;8.520;2022-07-25T00:36:45;100054.97;;;27.85;43.02
28428;BME280;15662;49.128;8.520;2022-07-25T00:39:13;100053.56;;;27.81;42.99
28428;BME280;15662;49.128;8.520;2022-07-25T00:41:41;100059.19;;;27.80;43.08
28428;BME280;15662;49.128;8.520;2022-07-25T00:44:25;100055.22;;;27.74;43.02
28428;BME280;15662;49.128;8.520;2022-07-25T00:46:55;100061.97;;;27.70;43.28
28428;BME280;15662;49.128;8.520;2022-07-25T00:49:24;100059.72;;;27.65;43.07
28428;BME280;15662;49.128;8.520;2022-07-25T00:51:52;100045.53;;;27.62;42.96
28428;BME280;15662;49.128;8.520;2022-07-25T00:54:21;100044.47;;;27.55;43.21
28428;BME280;15662;49.128;8.520;2022-07-25T00:56:49;100046.47;;;27.52;43.44
28428;BME280;15662;49.128;8.520;2022-07-25T00:59:18;100058.56;;;27.50;43.52
28428;BME280;15662;49.128;8.520;2022-07-25T01:01:47;100043.38;;;27.47;43.53
28428;BME280;15662;49.128;8.520;2022-07-25T01:04:16;100039.81;;;27.47;43.51
28428;BME280;15662;49.128;8.520;2022-07-25T01:06:44;100035.53;;;27.44;43.72
28428;BME280;15662;49.128;8.520;2022-07-25T01:09:13;100029.53;;;27.41;43.89
28428;BME280;15662;49.128;8.520;2022-07-25T01:11:41;100030.88;;;27.37;43.95
28428;BME280;15662;49.128;8.520;2022-07-25T01:14:09;100023.88;;;27.34;43.98
28428;BME280;15662;49.128;8.520;2022-07-25T01:16:37;100027.91;;;27.30;43.96
28428;BME280;15662;49.128;8.520;2022-07-25T01:19:07;100029.91;;;27.28;44.05
28428;BME280;15662;49.128;8.520;2022-07-25T01:21:40;100028.50;;;27.24;44.14
28428;BME280;15662;49.128;8.520;2022-07-25T01:24:11;100018.25;;;27.18;44.29
28428;BME280;15662;49.128;8.520;2022-07-25T01:26:39;100015.16;;;27.13;44.49
28428;BME280;15662;49.128;8.520;2022-07-25T01:29:08;100013.19;;;27.05;44.56
28428;BME280;15662;49.128;8.520;2022-07-25T01:31:36;100013.31;;;27.04;44.50
28428;BME280;15662;49.128;8.520;2022-07-25T01:34:04;100010.13;;;26.90;44.62
28428;BME280;15662;49.128;8.520;2022-07-25T01:36:32;99995.41;;;26.83;44.48
28428;BME280;15662;49.128;8.520;2022-07-25T01:39:00;100015.88;;;26.87;44.69
28428;BME280;15662;49.128;8.520;2022-07-25T01:41:28;100006.63;;;26.80;44.65
28428;BME280;15662;49.128;8.520;2022-07-25T01:43:56;100010.50;;;26.78;44.86
28428;BME280;15662;49.128;8.520;2022-07-25T01:46:24;100014.50;;;26.73;44.61
28428;BME280;15662;49.128;8.520;2022-07-25T01:48:52;100010.53;;;26.68;44.90
28428;BME280;15662;49.128;8.520;2022-07-25T01:51:20;100003.56;;;26.65;44.90
28428;BME280;15662;49.128;8.520;2022-07-25T01:53:48;100001.13;;;26.62;45.20
28428;BME280;15662;49.128;8.520;2022-07-25T01:56:16;100004.16;;;26.59;45.11
28428;BME280;15662;49.128;8.520;2022-07-25T01:58:47;100012.75;;;26.55;45.11
28428;BME280;15662;49.128;8.520;2022-07-25T02:01:15;99991.78;;;26.47;45.36
28428;BME280;15662;49.128;8.520;2022-07-25T02:03:43;99997.22;;;26.47;45.44
28428;BME280;15662;49.128;8.520;2022-07-25T02:06:11;99999.50;;;26.42;45.60
28428;BME280;15662;49.128;8.520;2022-07-25T02:08:39;99998.94;;;26.38;45.47
28428;BME280;15662;49.128;8.520;2022-07-25T02:11:07;100001.94;;;26.35;45.99
28428;BME280;15662;49.128;8.520;2022-07-25T02:13:35;99997.09;;;26.29;45.79
28428;BME280;15662;49.128;8.520;2022-07-25T02:16:03;99995.69;;;26.25;45.90
28428;BME280;15662;49.128;8.520;2022-07-25T02:18:31;100001.56;;;26.20;46.07
28428;BME280;15662;49.128;8.520;2022-07-25T02:20:59;100000.47;;;26.13;45.85
28428;BME280;15662;49.128;8.520;2022-07-25T02:23:27;100006.34;;;26.09;46.03
28428;BME280;15662;49.128;8.520;2022-07-25T02:25:55;100011.19;;;26.05;46.24
28428;BME280;15662;49.128;8.520;2022-07-25T02:28:23;100002.81;;;25.98;45.99
28428;BME280;15662;49.128;8.520;2022-07-25T02:30:51;100000.78;;;26.01;46.39
28428;BME280;15662;49.128;8.520;2022-07-25T02:33:19;100003.50;;;26.01;46.39
28428;BME280;15662;49.128;8.520;2022-07-25T02:35:47;99995.06;;;26.04;46.60
28428;BME280;15662;49.128;8.520;2022-07-25T02:38:15;99993.03;;;26.06;46.34
28428;BME280;15662;49.128;8.520;2022-07-25T02:40:50;99999.69;;;25.84;46.28
28428;BME280;15662;49.128;8.520;2022-07-25T02:43:19;99986.94;;;25.94;46.44
28428;BME280;15662;49.128;8.520;2022-07-25T02:45:47;99992.50;;;26.02;46.54
28428;BME280;15662;49.128;8.520;2022-07-25T02:48:15;99988.22;;;25.99;46.78
28428;BME280;15662;49.128;8.520;2022-07-25T02:50:43;99986.78;;;25.95;46.99
28428;BME280;15662;49.128;8.520;2022-07-25T02:53:11;99993.38;;;25.93;46.96
28428;BME280;15662;49.128;8.520;2022-07-25T02:55:39;99970.53;;;25.86;46.93
28428;BME280;15662;49.128;8.520;2022-07-25T02:58:07;99994.25;;;25.84;47.25
28428;BME280;15662;49.128;8.520;2022-07-25T03:00:35;99984.69;;;25.80;46.94
28428;BME280;15662;49.128;8.520;2022-07-25T03:03:04;99998.44;;;25.78;47.24
28428;BME280;15662;49.128;8.520;2022-07-25T03:05:32;99980.84;;;25.72;47.31
28428;BME280;15662;49.128;8.520;2022-07-25T03:08:00;99982.41;;;25.75;47.23
28428;BME280;15662;49.128;8.520;2022-07-25T03:10:28;99986.25;;;25.72;47.49
28428;BME280;15662;49.128;8.520;2022-07-25T03:12:56;99982.13;;;25.68;47.57
28428;BME280;15662;49.128;8.520;2022-07-25T03:15:24;99987.84;;;25.65;47.29
28428;BME280;15662;49.128;8.520;2022-07-25T03:17:52;99981.13;;;25.60;47.55
28428;BME280;15662;49.128;8.520;2022-07-25T03:20:20;99983.69;;;25.52;47.43
28428;BME280;15662;49.128;8.520;2022-07-25T03:22:48;99992.72;;;25.52;47.55
28428;BME280;15662;49.128;8.520;2022-07-25T03:25:16;99980.44;;;25.48;47.49
28428;BME280;15662;49.128;8.520;2022-07-25T03:27:49;99985.88;;;25.48;47.71
28428;BME280;15662;49.128;8.520;2022-07-25T03:30:18;99981.88;;;25.42;47.53
28428;BME280;15662;49.128;8.520;2022-07-25T03:32:45;99981.72;;;25.44;47.86
28428;BME280;15662;49.128;8.520;2022-07-25T03:35:14;99972.88;;;25.42;47.87
28428;BME280;15662;49.128;8.520;2022-07-25T03:37:43;99978.00;;;25.45;47.96
28428;BME280;15662;49.128;8.520;2022-07-25T03:40:11;99973.44;;;25.45;48.25
28428;BME280;15662;49.128;8.520;2022-07-25T03:42:40;99983.44;;;25.45;48.30
28428;BME280;15662;49.128;8.520;2022-07-25T03:45:08;99974.28;;;25.46;48.69
28428;BME280;15662;49.128;8.520;2022-07-25T03:47:37;99968.88;;;25.46;48.87
28428;BME280;15662;49.128;8.520;2022-07-25T03:50:06;99960.88;;;25.44;48.65
28428;BME280;15662;49.128;8.520;2022-07-25T03:52:34;99957.88;;;25.47;48.84
28428;BME280;15662;49.128;8.520;2022-07-25T03:55:01;99961.28;;;25.50;48.76
28428;BME280;15662;49.128;8.520;2022-07-25T03:57:29;99962.56;;;25.55;48.52
28428;BME280;15662;49.128;8.520;2022-07-25T03:59:57;99962.72;;;25.54;48.67
28428;BME280;15662;49.128;8.520;2022-07-25T04:02:25;99968.56;;;25.59;48.44
28428;BME280;15662;49.128;8.520;2022-07-25T04:04:54;99966.44;;;25.62;48.67
28428;BME280;15662;49.128;8.520;2022-07-25T04:07:22;99970.69;;;25.65;48.52
28428;BME280;15662;49.128;8.520;2022-07-25T04:09:52;99967.97;;;25.65;48.81
28428;BME280;15662;49.128;8.520;2022-07-25T04:12:20;99970.00;;;25.63;48.70
28428;BME280;15662;49.128;8.520;2022-07-25T04:14:48;99969.16;;;25.62;48.60
28428;BME280;15662;49.128;8.520;2022-07-25T04:17:16;99950.88;;;25.55;48.71
28428;BME280;15662;49.128;8.520;2022-07-25T04:19:45;99970.72;;;25.55;48.58
28428;BME280;15662;49.128;8.520;2022-07-25T04:22:13;99963.84;;;25.51;48.69
28428;BME280;15662;49.128;8.520;2022-07-25T04:24:41;99954.75;;;25.52;48.63
28428;BME280;15662;49.128;8.520;2022-07-25T04:27:09;99954.59;;;25.54;48.42
28428;BME280;15662;49.128;8.520;2022-07-25T04:29:37;99955.28;;;25.56;48.52
28428;BME280;15662;49.128;8.520;2022-07-25T04:32:05;99948.72;;;25.58;48.31
28428;BME280;15662;49.128;8.520;2022-07-25T04:34:33;99956.28;;;25.64;48.76
28428;BME280;15662;49.128;8.520;2022-07-25T04:37:01;99965.84;;;25.68;48.67
28428;BME280;15662;49.128;8.520;2022-07-25T04:39:29;99947.56;;;25.61;48.25
28428;BME280;15662;49.128;8.520;2022-07-25T04:41:57;99949.84;;;25.65;48.50
28428;BME280;15662;49.128;8.520;2022-07-25T04:44:25;99958.97;;;25.64;48.66
28428;BME280;15662;49.128;8.520;2022-07-25T04:46:52;99959.25;;;25.61;48.34
28428;BME280;15662;49.128;8.520;2022-07-25T04:49:20;99957.28;;;25.63;48.57
28428;BME280;15662;49.128;8.520;2022-07-25T04:51:48;99946.00;;;25.58;48.37
28428;BME280;15662;49.128;8.520;2022-07-25T04:54:36;99945.25;;;25.66;48.79
28428;BME280;15662;49.128;8.520;2022-07-25T04:57:05;99947.41;;;25.72;48.62
28428;BME280;15662;49.128;8.520;2022-07-25T04:59:53;99944.41;;;25.75;48.66
28428;BME280;15662;49.128;8.520;2022-07-25T05:02:21;99944.81;;;25.80;48.66
28428;BME280;15662;49.128;8.520;2022-07-25T05:04:55;99941.53;;;25.86;48.56
28428;BME280;15662;49.128;8.520;2022-07-25T05:07:23;99935.63;;;25.91;48.36
28428;BME280;15662;49.128;8.520;2022-07-25T05:09:53;99935.06;;;25.97;48.38
28428;BME280;15662;49.128;8.520;2022-07-25T05:12:21;99937.19;;;26.03;48.07
28428;BME280;15662;49.128;8.520;2022-07-25T05:14:49;99936.56;;;26.09;48.24
28428;BME280;15662;49.128;8.520;2022-07-25T05:17:17;99928.84;;;26.14;48.11
28428;BME280;15662;49.128;8.520;2022-07-25T05:19:45;99930.41;;;26.17;48.16
28428;BME280;15662;49.128;8.520;2022-07-25T05:22:13;99928.66;;;26.26;47.86
28428;BME280;15662;49.128;8.520;2022-07-25T05:24:41;99936.03;;;26.33;47.98
28428;BME280;15662;49.128;8.520;2022-07-25T05:27:09;99930.16;;;26.38;47.83
28428;BME280;15662;49.128;8.520;2022-07-25T05:29:37;99934.00;;;26.45;47.57
28428;BME280;15662;49.128;8.520;2022-07-25T05:32:05;99936.25;;;26.49;47.72
28428;BME280;15662;49.128;8.520;2022-07-25T05:34:33;99934.94;;;26.54;47.47
28428;BME280;15662;49.128;8.520;2022-07-25T05:37:01;99934.31;;;26.60;47.74
28428;BME280;15662;49.128;8.520;2022-07-25T05:39:29;99936.47;;;26.66;47.66
28428;BME280;15662;49.128;8.520;2022-07-25T05:41:56;99926.09;;;26.69;47.38
28428;BME280;15662;49.128;8.520;2022-07-25T05:44:24;99927.22;;;26.77;47.25
28428;BME280;15662;49.128;8.520;2022-07-25T05:46:52;99919.63;;;26.80;47.34
28428;BME280;15662;49.128;8.520;2022-07-25T05:49:20;99921.00;;;26.84;46.96
28428;BME280;15662;49.128;8.520;2022-07-25T05:51:48;99916.09;;;26.88;46.96
28428;BME280;15662;49.128;8.520;2022-07-25T05:54:16;99911.78;;;26.95;46.70
28428;BME280;15662;49.128;8.520;2022-07-25T05:56:44;99920.53;;;27.07;46.63
28428;BME280;15662;49.128;8.520;2022-07-25T05:59:12;99935.25;;;27.14;46.33
28428;BME280;15662;49.128;8.520;2022-07-25T06:01:40;99926.09;;;27.15;46.30
28428;BME280;15662;49.128;8.520;2022-07-25T06:04:08;99929.72;;;27.23;46.29
28428;BME280;15662;49.128;8.520;2022-07-25T06:06:36;99914.47;;;27.31;46.10
28428;BME280;15662;49.128;8.520;2022-07-25T06:09:04;99918.44;;;27.36;45.88
28428;BME280;15662;49.128;8.520;2022-07-25T06:11:34;99916.25;;;27.40;45.77
28428;BME280;15662;49.128;8.520;2022-07-25T06:14:17;99919.88;;;27.48;45.72
28428;BME280;15662;49.128;8.520;2022-07-25T06:16:45;99909.34;;;27.53;45.57
28428;BME280;15662;49.128;8.520;2022-07-25T06:19:14;99904.69;;;27.64;45.71
28428;BME280;15662;49.128;8.520;2022-07-25T06:21:41;99915.16;;;27.76;45.46
28428;BME280;15662;49.128;8.520;2022-07-25T06:24:09;99913.53;;;27.84;45.41
28428;BME280;15662;49.128;8.520;2022-07-25T06:26:37;99915.25;;;27.93;45.02
28428;BME280;15662;49.128;8.520;2022-07-25T06:29:06;99921.44;;;28.03;45.03
28428;BME280;15662;49.128;8.520;2022-07-25T06:31:33;99916.56;;;28.15;45.28
28428;BME280;15662;49.128;8.520;2022-07-25T06:34:02;99911.56;;;28.36;45.03
28428;BME280;15662;49.128;8.520;2022-07-25T06:36:30;99923.06;;;28.64;44.71
28428;BME280;15662;49.128;8.520;2022-07-25T06:39:00;99916.09;;;28.86;44.85
28428;BME280;15662;49.128;8.520;2022-07-25T06:41:28;99911.91;;;29.08;44.19
28428;BME280;15662;49.128;8.520;2022-07-25T06:43:56;99918.88;;;29.35;44.04
28428;BME280;15662;49.128;8.520;2022-07-25T06:46:24;99911.38;;;29.53;43.38
28428;BME280;15662;49.128;8.520;2022-07-25T06:48:57;99915.97;;;29.77;43.10
28428;BME280;15662;49.128;8.520;2022-07-25T06:51:25;99907.72;;;29.94;42.85
28428;BME280;15662;49.128;8.520;2022-07-25T06:53:53;99905.28;;;30.07;42.14
28428;BME280;15662;49.128;8.520;2022-07-25T06:56:21;99893.25;;;30.24;42.01
28428;BME280;15662;49.128;8.520;2022-07-25T06:58:49;99893.19;;;30.41;41.59
28428;BME280;15662;49.128;8.520;2022-07-25T07:01:17;99897.53;;;30.58;41.10
28428;BME280;15662;49.128;8.520;2022-07-25T07:03:44;99904.16;;;30.72;40.58
28428;BME280;15662;49.128;8.520;2022-07-25T07:06:13;99893.63;;;30.83;40.45
28428;BME280;15662;49.128;8.520;2022-07-25T07:08:41;99896.44;;;30.98;40.27
28428;BME280;15662;49.128;8.520;2022-07-25T07:11:08;99899.59;;;31.10;40.02
28428;BME280;15662;49.128;8.520;2022-07-25T07:13:36;99897.66;;;31.19;39.47
28428;BME280;15662;49.128;8.520;2022-07-25T07:16:05;99904.41;;;31.31;39.65
28428;BME280;15662;49.128;8.520;2022-07-25T07:18:33;99888.75;;;31.40;39.41
28428;BME280;15662;49.128;8.520;2022-07-25T07:21:01;99894.81;;;31.50;39.02
28428;BME280;15662;49.128;8.520;2022-07-25T07:23:28;99896.94;;;31.63;38.76
28428;BME280;15662;49.128;8.520;2022-07-25T07:25:59;99890.50;;;31.70;38.82
28428;BME280;15662;49.128;8.520;2022-07-25T07:28:27;99884.75;;;31.80;38.51
28428;BME280;15662;49.128;8.520;2022-07-25T07:30:55;99894.59;;;31.89;38.32
28428;BME280;15662;49.128;8.520;2022-07-25T07:33:42;99891.94;;;31.96;38.24
28428;BME280;15662;49.128;8.520;2022-07-25T07:36:10;99888.91;;;32.05;38.08
28428;BME280;15662;49.128;8.520;2022-07-25T07:38:38;99887.56;;;32.16;38.01
28428;BME280;15662;49.128;8.520;2022-07-25T07:41:07;99890.88;;;32.26;37.49
28428;BME280;15662;49.128;8.520;2022-07-25T07:43:35;99894.56;;;32.33;37.08
28428;BME280;15662;49.128;8.520;2022-07-25T07:46:03;99893.16;;;32.38;37.09
28428;BME280;15662;49.128;8.520;2022-07-25T07:48:32;99901.53;;;32.51;36.81
28428;BME280;15662;49.128;8.520;2022-07-25T07:51:01;99893.19;;;32.59;36.88
28428;BME280;15662;49.128;8.520;2022-07-25T07:53:29;99887.59;;;32.67;36.67
28428;BME280;15662;49.128;8.520;2022-07-25T07:56:16;99882.75;;;32.69;36.33
28428;BME280;15662;49.128;8.520;2022-07-25T07:58:45;99896.16;;;32.79;36.36
28428;BME280;15662;49.128;8.520;2022-07-25T08:01:14;99883.56;;;32.84;36.33
28428;BME280;15662;49.128;8.520;2022-07-25T08:03:42;99879.56;;;32.87;36.17
28428;BME280;15662;49.128;8.520;2022-07-25T08:06:10;99884.09;;;32.95;35.97
28428;BME280;15662;49.128;8.520;2022-07-25T08:08:38;99888.38;;;32.97;35.92
28428;BME280;15662;49.128;8.520;2022-07-25T08:11:06;99891.56;;;33.01;35.85
28428;BME280;15662;49.128;8.520;2022-07-25T08:13:33;99893.91;;;33.04;35.86
28428;BME280;15662;49.128;8.520;2022-07-25T08:16:04;99892.25;;;33.09;35.41
28428;BME280;15662;49.128;8.520;2022-07-25T08:18:33;99896.31;;;33.13;35.49
28428;BME280;15662;49.128;8.520;2022-07-25T08:21:01;99894.03;;;33.17;35.09
28428;BME280;15662;49.128;8.520;2022-07-25T08:23:33;99891.75;;;33.21;35.17
28428;BME280;15662;49.128;8.520;2022-07-25T08:26:02;99902.41;;;33.30;35.23
28428;BME280;15662;49.128;8.520;2022-07-25T08:28:31;99891.22;;;33.32;35.38
28428;BME280;15662;49.128;8.520;2022-07-25T08:30:59;99899.50;;;33.38;35.46
28428;BME280;15662;49.128;8.520;2022-07-25T08:33:27;99895.97;;;33.45;35.13
28428;BME280;15662;49.128;8.520;2022-07-25T08:35:56;99896.22;;;33.50;34.93
28428;BME280;15662;49.128;8.520;2022-07-25T08:38:27;99897.53;;;33.54;35.12
28428;BME280;15662;49.128;8.520;2022-07-25T08:40:56;99892.50;;;33.57;34.80
28428;BME280;15662;49.128;8.520;2022-07-25T08:43:25;99893.38;;;33.64;34.63
28428;BME280;15662;49.128;8.520;2022-07-25T08:45:54;99887.94;;;33.71;34.71
28428;BME280;15662;49.128;8.520;2022-07-25T08:48:25;99887.97;;;33.78;34.68
28428;BME280;15662;49.128;8.520;2022-07-25T08:50:54;99895.59;;;33.82;34.28
28428;BME280;15662;49.128;8.520;2022-07-25T08:53:26;99902.41;;;33.86;34.31
28428;BME280;15662;49.128;8.520;2022-07-25T08:56:04;99894.19;;;33.93;33.81
28428;BME280;15662;49.128;8.520;2022-07-25T08:58:40;99896.78;;;33.95;33.64
28428;BME280;15662;49.128;8.520;2022-07-25T09:01:12;99887.50;;;34.02;33.71
28428;BME280;15662;49.128;8.520;2022-07-25T09:03:42;99890.50;;;34.07;33.74
28428;BME280;15662;49.128;8.520;2022-07-25T09:06:20;99875.28;;;34.11;33.61
28428;BME280;15662;49.128;8.520;2022-07-25T09:08:57;99873.22;;;34.20;33.12
28428;BME280;15662;49.128;8.520;2022-07-25T09:11:31;99873.03;;;34.28;33.00
28428;BME280;15662;49.128;8.520;2022-07-25T09:14:17;99869.88;;;34.38;33.23
28428;BME280;15662;49.128;8.520;2022-07-25T09:16:46;99862.50;;;34.38;33.11
28428;BME280;15662;49.128;8.520;2022-07-25T09:19:17;99862.13;;;34.48;32.63
28428;BME280;15662;49.128;8.520;2022-07-25T09:22:01;99857.28;;;34.57;32.45
28428;BME280;15662;49.128;8.520;2022-07-25T09:24:29;99866.59;;;34.62;32.64
28428;BME280;15662;49.128;8.520;2022-07-25T09:27:07;99865.16;;;34.73;32.52
28428;BME280;15662;49.128;8.520;2022-07-25T09:29:40;99848.44;;;34.75;32.56
28428;BME280;15662;49.128;8.520;2022-07-25T09:32:20;99856.50;;;34.89;32.25
28428;BME280;15662;49.128;8.520;2022-07-25T09:34:50;99848.47;;;34.88;32.24
28428;BME280;15662;49.128;8.520;2022-07-25T09:37:24;99827.06;;;34.90;31.98
28428;BME280;15662;49.128;8.520;2022-07-25T09:39:52;99837.91;;;34.98;31.78
28428;BME280;15662;49.128;8.520;2022-07-25T09:42:30;99838.09;;;35.10;31.61
28428;BME280;15662;49.128;8.520;2022-07-25T09:45:12;99838.31;;;35.15;31.32
28428;BME280;15662;49.128;8.520;2022-07-25T09:47:55;99837.69;;;35.20;31.10
28428;BME280;15662;49.128;8.520;2022-07-25T09:50:27;99829.00;;;35.23;31.06
28428;BME280;15662;49.128;8.520;2022-07-25T09:53:00;99824.09;;;35.31;30.99
28428;BME280;15662;49.128;8.520;2022-07-25T09:55:30;99832.78;;;35.35;30.59
28428;BME280;15662;49.128;8.520;2022-07-25T09:57:58;99825.81;;;35.39;30.33
28428;BME280;15662;49.128;8.520;2022-07-25T10:00:27;99813.94;;;35.45;30.43
28428;BME280;15662;49.128;8.520;2022-07-25T10:08:59;99813.28;;;35.63;30.02
28428;BME280;15662;49.128;8.520;2022-07-25T10:11:27;99803.91;;;35.71;29.29
28428;BME280;15662;49.128;8.520;2022-07-25T10:14:07;99807.47;;;35.84;29.13
28428;BME280;15662;49.128;8.520;2022-07-25T10:16:46;99796.63;;;35.96;29.14
28428;BME280;15662;49.128;8.520;2022-07-25T10:19:15;99810.16;;;36.11;28.88
28428;BME280;15662;49.128;8.520;2022-07-25T10:21:54;99797.13;;;36.31;28.39
28428;BME280;15662;49.128;8.520;2022-07-25T10:24:33;99790.88;;;36.49;28.30
28428;BME280;15662;49.128;8.520;2022-07-25T10:27:08;99796.03;;;36.71;27.65
28428;BME280;15662;49.128;8.520;2022-07-25T10:29:40;99797.16;;;36.88;27.41
28428;BME280;15662;49.128;8.520;2022-07-25T10:32:10;99806.66;;;36.99;27.22
28428;BME280;15662;49.128;8.520;2022-07-25T10:34:39;99797.50;;;37.05;26.63
28428;BME280;15662;49.128;8.520;2022-07-25T10:37:16;99793.59;;;37.12;26.30
28428;BME280;15662;49.128;8.520;2022-07-25T10:39:47;99801.59;;;37.21;25.94
28428;BME280;15662;49.128;8.520;2022-07-25T10:42:21;99802.16;;;37.29;25.87
28428;BME280;15662;49.128;8.520;2022-07-25T10:44:54;99800.00;;;37.31;26.29
28428;BME280;15662;49.128;8.520;2022-07-25T10:47:26;99797.19;;;37.38;26.04
28428;BME280;15662;49.128;8.520;2022-07-25T10:50:01;99793.13;;;37.40;25.88
28428;BME280;15662;49.128;8.520;2022-07-25T10:52:59;99797.91;;;37.52;26.11
28428;BME280;15662;49.128;8.520;2022-07-25T10:56:12;99803.81;;;37.55;26.64
28428;BME280;15662;49.128;8.520;2022-07-25T10:58:52;99800.72;;;37.63;26.42
28428;BME280;15662;49.128;8.520;2022-07-25T11:01:31;99795.59;;;37.67;26.34
28428;BME280;15662;49.128;8.520;2022-07-25T11:04:18;99790.06;;;37.67;26.20
28428;BME280;15662;49.128;8.520;2022-07-25T11:06:46;99793.78;;;37.79;26.09
28428;BME280;15662;49.128;8.520;2022-07-25T11:11:58;99780.47;;;37.88;26.24
28428;BME280;15662;49.128;8.520;2022-07-25T11:14:39;99778.94;;;37.92;25.61
28428;BME280;15662;49.128;8.520;2022-07-25T11:17:22;99780.41;;;37.94;25.41
28428;BME280;15662;49.128;8.520;2022-07-25T11:20:06;99786.94;;;38.00;25.78
28428;BME280;15662;49.128;8.520;2022-07-25T11:22:35;99787.31;;;38.04;25.93
28428;BME280;15662;49.128;8.520;2022-07-25T11:25:12;99780.00;;;38.09;25.30
28428;BME280;15662;49.128;8.520;2022-07-25T11:27:43;99777.69;;;38.06;25.31
28428;BME280;15662;49.128;8.520;2022-07-25T11:30:17;99775.22;;;38.16;25.30
28428;BME280;15662;49.128;8.520;2022-07-25T11:32:53;99785.34;;;38.22;25.05
28428;BME280;15662;49.128;8.520;2022-07-25T11:35:30;99770.91;;;38.20;24.84
28428;BME280;15662;49.128;8.520;2022-07-25T11:38:00;99776.56;;;38.26;25.09
28428;BME280;15662;49.128;8.520;2022-07-25T11:40:29;99780.22;;;38.08;25.89
28428;BME280;15662;49.128;8.520;2022-07-25T11:42:59;99783.31;;;38.18;25.61
28428;BME280;15662;49.128;8.520;2022-07-25T11:45:33;99774.91;;;38.25;25.32
28428;BME280;15662;49.128;8.520;2022-07-25T11:48:12;99780.03;;;38.21;25.20
28428;BME280;15662;49.128;8.520;2022-07-25T11:50:43;99776.69;;;38.19;24.99
28428;BME280;15662;49.128;8.520;2022-07-25T11:53:14;99773.91;;;38.19;25.39
28428;BME280;15662;49.128;8.520;2022-07-25T11:55:43;99766.44;;;38.19;25.23
28428;BME280;15662;49.128;8.520;2022-07-25T11:58:13;99768.03;;;38.27;25.45
28428;BME280;15662;49.128;8.520;2022-07-25T12:00:46;99761.81;;;38.32;25.14
28428;BME280;15662;49.128;8.520;2022-07-25T12:03:17;99766.06;;;38.34;25.00
28428;BME280;15662;49.128;8.520;2022-07-25T12:05:48;99751.97;;;38.36;25.18
28428;BME280;15662;49.128;8.520;2022-07-25T12:08:20;99754.03;;;38.40;24.72
28428;BME280;15662;49.128;8.520;2022-07-25T12:10:50;99761.75;;;38.38;24.43
28428;BME280;15662;49.128;8.520;2022-07-25T12:13:28;99742.72;;;38.42;24.24
28428;BME280;15662;49.128;8.520;2022-07-25T12:15:58;99758.25;;;38.43;24.69
28428;BME280;15662;49.128;8.520;2022-07-25T12:18:27;99745.47;;;38.42;24.63
28428;BME280;15662;49.128;8.520;2022-07-25T12:20:55;99742.84;;;38.47;24.87
28428;BME280;15662;49.128;8.520;2022-07-25T12:23:24;99746.38;;;38.54;25.06
28428;BME280;15662;49.128;8.520;2022-07-25T12:25:52;99742.06;;;38.58;25.20
28428;BME280;15662;49.128;8.520;2022-07-25T12:28:20;99732.78;;;38.64;24.80
28428;BME280;15662;49.128;8.520;2022-07-25T12:30:48;99733.63;;;38.65;24.80
28428;BME280;15662;49.128;8.520;2022-07-25T12:33:23;99727.75;;;38.73;24.68
28428;BME280;15662;49.128;8.520;2022-07-25T12:35:51;99735.00;;;38.86;24.65
28428;BME280;15662;49.128;8.520;2022-07-25T12:38:19;99717.44;;;38.92;24.67
28428;BME280;15662;49.128;8.520;2022-07-25T12:40:47;99724.91;;;39.03;24.68
28428;BME280;15662;49.128;8.520;2022-07-25T12:43:16;99727.41;;;39.05;24.59
28428;BME280;15662;49.128;8.520;2022-07-25T12:45:44;99720.56;;;39.07;24.81
28428;BME280;15662;49.128;8.520;2022-07-25T12:48:13;99704.28;;;39.11;24.44
28428;BME280;15662;49.128;8.520;2022-07-25T12:50:43;99705.84;;;39.18;24.85
28428;BME280;15662;49.128;8.520;2022-07-25T12:53:12;99709.97;;;39.28;24.97
28428;BME280;15662;49.128;8.520;2022-07-25T12:55:40;99713.94;;;39.32;24.22
28428;BME280;15662;49.128;8.520;2022-07-25T12:58:08;99699.81;;;39.33;24.03
28428;BME280;15662;49.128;8.520;2022-07-25T13:00:36;99698.25;;;39.37;23.82
28428;BME280;15662;49.128;8.520;2022-07-25T13:03:04;99701.25;;;39.36;23.97
28428;BME280;15662;49.128;8.520;2022-07-25T13:05:32;99692.34;;;39.34;24.14
28428;BME280;15662;49.128;8.520;2022-07-25T13:08:03;99699.47;;;39.41;23.92
28428;BME280;15662;49.128;8.520;2022-07-25T13:10:31;99704.63;;;39.38;24.00
28428;BME280;15662;49.128;8.520;2022-07-25T13:12:59;99709.34;;;39.37;24.26
28428;BME280;15662;49.128;8.520;2022-07-25T13:15:27;99699.25;;;39.31;23.84
28428;BME280;15662;49.128;8.520;2022-07-25T13:17:56;99703.81;;;39.26;24.34
28428;BME280;15662;49.128;8.520;2022-07-25T13:20:24;99716.59;;;39.27;24.07
28428;BME280;15662;49.128;8.520;2022-07-25T13:22:52;99710.69;;;39.23;24.17